| time (UTC) | temp C | wind direction | speed KPH | gust KPH | rain 1hr cm | rain 24hr cm | rain mn cm | humidity % | barometer mb |
| 20260506124504 | 12 | 119 | 3.2 | 4.8 | 0.00 | 0.00 | 0.00 | 86 | 1017.9 |
| 20260506124025 | 12 | 119 | 1.6 | 4.8 | 0.00 | 0.00 | 0.00 | 86 | 1017.8 |
| 20260506123504 | 12 | 119 | 1.6 | 4.8 | 0.00 | 0.00 | 0.00 | 86 | 1017.8 |
| 20260506123004 | 12 | 119 | 1.6 | 4.8 | 0.00 | 0.00 | 0.00 | 86 | 1017.8 |
| 20260506122504 | 12 | 119 | 1.6 | 4.8 | 0.00 | 0.00 | 0.00 | 86 | 1017.9 |
| 20260506122004 | 12 | 119 | 0.0 | 4.8 | 0.00 | 0.00 | 0.00 | 86 | 1017.9 |
| 20260506121504 | 12 | 119 | 1.6 | 4.8 | 0.00 | 0.00 | 0.00 | 86 | 1017.8 |
| 20260506121004 | 12 | 119 | 1.6 | 4.8 | 0.00 | 0.00 | 0.00 | 86 | 1017.7 |
| 20260506120504 | 12 | 119 | 1.6 | 4.8 | 0.00 | 0.00 | 0.00 | 86 | 1017.7 |
| 20260506120004 | 12 | 119 | 1.6 | 4.8 | 0.00 | 0.00 | 0.00 | 85 | 1017.7 |
| 20260506115503 | 12 | 119 | 1.6 | 4.8 | 0.00 | 0.00 | 0.00 | 85 | 1017.6 |
| 20260506115004 | 12 | 119 | 0.0 | 4.8 | 0.00 | 0.00 | 0.00 | 85 | 1017.6 |
| 20260506114504 | 12 | 119 | 0.0 | 3.2 | 0.00 | 0.00 | 0.00 | 85 | 1017.5 |
| 20260506114025 | 12 | 119 | 0.0 | 1.6 | 0.00 | 0.00 | 0.00 | 85 | 1017.4 |
| 20260506113504 | 12 | 119 | 0.0 | 3.2 | 0.00 | 0.00 | 0.00 | 84 | 1017.4 |
| 20260506113004 | 12 | 119 | 0.0 | 3.2 | 0.00 | 0.00 | 0.00 | 84 | 1017.3 |
| 20260506112504 | 12 | 119 | 0.0 | 3.2 | 0.00 | 0.00 | 0.00 | 84 | 1017.3 |
| 20260506112024 | 12 | 119 | 0.0 | 3.2 | 0.00 | 0.00 | 0.00 | 84 | 1017.2 |
| 20260506111504 | 12 | 0 | 0.0 | 0.0 | 0.00 | 0.00 | 0.00 | 84 | 1017.2 |
| 20260506111003 | 12 | 0 | 0.0 | 0.0 | 0.00 | 0.00 | 0.00 | 84 | 1017.2 |
| 20260506110504 | 12 | 0 | 0.0 | 0.0 | 0.00 | 0.00 | 0.00 | 84 | 1017.2 |
| 20260506110004 | 12 | 0 | 0.0 | 0.0 | 0.00 | 0.00 | 0.00 | 84 | 1017.1 |
| 20260506105504 | 12 | 0 | 0.0 | 0.0 | 0.00 | 0.00 | 0.00 | 84 | 1017.1 |
| 20260506105024 | 12 | 0 | 0.0 | 0.0 | 0.00 | 0.00 | 0.00 | 84 | 1017.1 |
| 20260506104504 | 12 | 0 | 0.0 | 0.0 | 0.00 | 0.00 | 0.00 | 84 | 1017.0 |
| 20260506104004 | 12 | 0 | 0.0 | 0.0 | 0.00 | 0.00 | 0.00 | 84 | 1016.9 |
| 20260506103504 | 12 | 119 | 0.0 | 1.6 | 0.00 | 0.00 | 0.00 | 84 | 1016.9 |
| 20260506103004 | 12 | 119 | 0.0 | 1.6 | 0.00 | 0.00 | 0.00 | 84 | 1016.9 |
| 20260506102524 | 12 | 119 | 0.0 | 1.6 | 0.00 | 0.00 | 0.00 | 84 | 1016.9 |
| 20260506102003 | 12 | 119 | 0.0 | 1.6 | 0.00 | 0.00 | 0.00 | 83 | 1016.9 |
| 20260506101503 | 12 | 0 | 0.0 | 0.0 | 0.00 | 0.00 | 0.00 | 83 | 1016.9 |
| 20260506101003 | 12 | 0 | 0.0 | 0.0 | 0.00 | 0.00 | 0.00 | 82 | 1016.8 |
| 20260506100504 | 13 | 119 | 1.6 | 4.8 | 0.00 | 0.00 | 0.00 | 82 | 1016.7 |
| 20260506100004 | 13 | 119 | 3.2 | 4.8 | 0.00 | 0.00 | 0.00 | 81 | 1016.6 |
| 20260506095525 | 13 | 119 | 3.2 | 4.8 | 0.00 | 0.00 | 0.00 | 81 | 1016.5 |
| 20260506095004 | 13 | 126 | 3.2 | 6.4 | 0.00 | 0.00 | 0.00 | 80 | 1016.5 |
| 20260506094503 | 13 | 131 | 3.2 | 6.4 | 0.00 | 0.00 | 0.00 | 79 | 1016.5 |
| 20260506094004 | 13 | 146 | 3.2 | 6.4 | 0.00 | 0.00 | 0.00 | 78 | 1016.4 |
| 20260506093503 | 14 | 169 | 3.2 | 6.4 | 0.00 | 0.00 | 0.00 | 76 | 1016.5 |
| 20260506093004 | 14 | 183 | 1.6 | 4.8 | 0.00 | 0.00 | 0.00 | 75 | 1016.5 |
| 20260506092504 | 14 | 194 | 3.2 | 8.0 | 0.00 | 0.00 | 0.00 | 75 | 1016.5 |
| 20260506092003 | 14 | 193 | 4.8 | 12.9 | 0.00 | 0.00 | 0.00 | 75 | 1016.4 |
| 20260506091503 | 14 | 196 | 4.8 | 12.9 | 0.00 | 0.00 | 0.00 | 76 | 1016.6 |
| 20260506091003 | 14 | 231 | 3.2 | 11.3 | 0.00 | 0.00 | 0.00 | 77 | 1016.6 |
| 20260506090504 | 14 | 288 | 1.6 | 6.4 | 0.00 | 0.00 | 0.00 | 78 | 1016.6 |
| 20260506090004 | 14 | 297 | 0.0 | 3.2 | 0.00 | 0.00 | 0.00 | 78 | 1016.6 |
| 20260506085503 | 14 | 297 | 0.0 | 3.2 | 0.00 | 0.00 | 0.00 | 77 | 1016.7 |
| 20260506085004 | 14 | 297 | 0.0 | 3.2 | 0.00 | 0.00 | 0.00 | 77 | 1016.8 |
| 20260506084504 | 14 | 298 | 0.0 | 1.6 | 0.00 | 0.03 | 0.00 | 77 | 1016.8 |
| 20260506084003 | 14 | 298 | 0.0 | 1.6 | 0.00 | 0.03 | 0.00 | 77 | 1016.9 |
| 20260506083503 | 14 | 297 | 0.0 | 3.2 | 0.00 | 0.03 | 0.00 | 77 | 1016.9 |
| 20260506083003 | 14 | 296 | 0.0 | 3.2 | 0.00 | 0.03 | 0.00 | 77 | 1017.0 |
| 20260506082503 | 14 | 286 | 0.0 | 1.6 | 0.00 | 0.03 | 0.00 | 77 | 1017.0 |
| 20260506082003 | 14 | 286 | 0.0 | 3.2 | 0.00 | 0.03 | 0.00 | 77 | 1016.9 |
| 20260506081503 | 14 | 286 | 0.0 | 3.2 | 0.00 | 0.05 | 0.00 | 77 | 1016.9 |
| 20260506081003 | 14 | 286 | 0.0 | 1.6 | 0.00 | 0.05 | 0.00 | 77 | 1016.9 |
| 20260506080524 | 14 | 286 | 0.0 | 1.6 | 0.00 | 0.05 | 0.00 | 76 | 1016.8 |
| 20260506073524 | 14 | 286 | 0.0 | 4.8 | 0.00 | 0.08 | 0.00 | 76 | 1016.6 |
| 20260506073003 | 14 | 286 | 1.6 | 4.8 | 0.00 | 0.08 | 0.00 | 76 | 1016.6 |
| 20260506072503 | 14 | 286 | 1.6 | 4.8 | 0.00 | 0.08 | 0.00 | 76 | 1016.5 |
| 20260506072003 | 14 | 286 | 1.6 | 4.8 | 0.00 | 0.08 | 0.00 | 76 | 1016.4 |
| 20260506071524 | 14 | 285 | 1.6 | 6.4 | 0.00 | 0.08 | 0.00 | 76 | 1016.3 |
| 20260506071003 | 14 | 284 | 1.6 | 6.4 | 0.00 | 0.08 | 0.00 | 75 | 1016.3 |
| 20260506070524 | 14 | 282 | 1.6 | 6.4 | 0.00 | 0.08 | 0.00 | 75 | 1016.2 |
| 20260506062507 | 14 | 265 | 1.6 | 6.4 | 0.00 | 0.08 | 0.08 | 75 | 1015.9 |
| 20260506062007 | 15 | 264 | 1.6 | 6.4 | 0.00 | 0.08 | 0.08 | 74 | 1015.8 |
| 20260506061507 | 15 | 251 | 1.6 | 4.8 | 0.00 | 0.08 | 0.08 | 74 | 1015.7 |
| 20260506061007 | 15 | 251 | 1.6 | 6.4 | 0.00 | 0.08 | 0.08 | 73 | 1015.7 |
| 20260506060507 | 15 | 261 | 0.0 | 6.4 | 0.00 | 0.08 | 0.08 | 73 | 1015.6 |
| 20260506051007 | 15 | 321 | 0.0 | 3.2 | 0.00 | 0.08 | 0.08 | 71 | 1015.3 |
| 20260506050506 | 15 | 321 | 0.0 | 3.2 | 0.00 | 0.08 | 0.08 | 71 | 1015.2 |
| 20260506045027 | 16 | 242 | 1.6 | 8.0 | 0.00 | 0.08 | 0.08 | 70 | 1015.2 |
| 20260506044506 | 16 | 223 | 3.2 | 11.3 | 0.00 | 0.08 | 0.08 | 69 | 1015.1 |
| 20260506044028 | 16 | 222 | 4.8 | 12.9 | 0.00 | 0.08 | 0.08 | 69 | 1015.0 |
| 20260506043507 | 16 | 224 | 4.8 | 12.9 | 0.00 | 0.08 | 0.08 | 69 | 1014.8 |
| 20260506043007 | 16 | 231 | 6.4 | 12.9 | 0.00 | 0.08 | 0.08 | 69 | 1014.7 |
| 20260506042506 | 16 | 241 | 8.0 | 16.1 | 0.00 | 0.08 | 0.08 | 68 | 1014.6 |
| 20260506042028 | 16 | 244 | 8.0 | 16.1 | 0.00 | 0.08 | 0.08 | 68 | 1014.6 |
| 20260506041507 | 16 | 242 | 8.0 | 16.1 | 0.00 | 0.08 | 0.08 | 68 | 1014.5 |
| 20260506041006 | 16 | 239 | 8.0 | 16.1 | 0.00 | 0.08 | 0.08 | 67 | 1014.4 |
| 20260506040507 | 16 | 241 | 8.0 | 14.5 | 0.00 | 0.08 | 0.08 | 67 | 1014.4 |
| 20260506040007 | 16 | 246 | 8.0 | 16.1 | 0.00 | 0.08 | 0.08 | 67 | 1014.5 |
| 20260506035508 | 16 | 244 | 9.7 | 17.7 | 0.00 | 0.08 | 0.08 | 67 | 1014.4 |
| 20260506035007 | 16 | 244 | 8.0 | 17.7 | 0.00 | 0.08 | 0.08 | 67 | 1014.3 |
| 20260506034507 | 16 | 248 | 6.4 | 16.1 | 0.00 | 0.08 | 0.08 | 67 | 1014.4 |
| 20260506034006 | 16 | 251 | 6.4 | 16.1 | 0.00 | 0.08 | 0.08 | 66 | 1014.4 |
| 20260506033507 | 16 | 258 | 4.8 | 14.5 | 0.00 | 0.08 | 0.08 | 66 | 1014.3 |
| 20260506033006 | 16 | 260 | 4.8 | 12.9 | 0.00 | 0.08 | 0.08 | 66 | 1014.3 |
| 20260506032506 | 17 | 259 | 6.4 | 12.9 | 0.00 | 0.08 | 0.08 | 66 | 1014.3 |
| 20260506032006 | 17 | 258 | 8.0 | 12.9 | 0.00 | 0.08 | 0.08 | 65 | 1014.2 |
| 20260506031506 | 17 | 256 | 6.4 | 12.9 | 0.00 | 0.08 | 0.08 | 65 | 1014.1 |
| 20260506031006 | 17 | 257 | 6.4 | 14.5 | 0.00 | 0.08 | 0.08 | 65 | 1014.1 |
| 20260506030506 | 17 | 254 | 8.0 | 14.5 | 0.00 | 0.08 | 0.08 | 65 | 1014.1 |
| 20260506030006 | 17 | 249 | 9.7 | 16.1 | 0.00 | 0.08 | 0.08 | 64 | 1013.9 |
| 20260506025528 | 17 | 248 | 8.0 | 16.1 | 0.00 | 0.08 | 0.08 | 65 | 1013.8 |
| 20260506025007 | 17 | 251 | 8.0 | 16.1 | 0.00 | 0.08 | 0.08 | 65 | 1013.8 |
| 20260506024527 | 17 | 254 | 9.7 | 16.1 | 0.00 | 0.08 | 0.08 | 65 | 1013.8 |
| 20260506024006 | 17 | 256 | 8.0 | 14.5 | 0.00 | 0.08 | 0.08 | 65 | 1013.7 |
| 20260506023527 | 17 | 251 | 9.7 | 19.3 | 0.00 | 0.08 | 0.08 | 65 | 1013.8 |
| 20260506023006 | 17 | 252 | 9.7 | 19.3 | 0.00 | 0.08 | 0.08 | 65 | 1013.7 |
| 20260506022506 | 17 | 253 | 8.0 | 19.3 | 0.00 | 0.08 | 0.08 | 65 | 1013.6 |
| 20260506022006 | 17 | 252 | 8.0 | 19.3 | 0.00 | 0.08 | 0.08 | 65 | 1013.5 |
| 20260506021507 | 17 | 252 | 8.0 | 19.3 | 0.00 | 0.08 | 0.08 | 65 | 1013.5 |
| 20260506021027 | 17 | 252 | 8.0 | 16.1 | 0.00 | 0.08 | 0.08 | 64 | 1013.5 |
| 20260506020506 | 17 | 251 | 9.7 | 16.1 | 0.00 | 0.08 | 0.08 | 64 | 1013.4 |
| 20260506020027 | 17 | 253 | 9.7 | 19.3 | 0.00 | 0.08 | 0.08 | 64 | 1013.5 |
| 20260506015527 | 17 | 255 | 9.7 | 19.3 | 0.00 | 0.08 | 0.08 | 63 | 1013.4 |
| 20260506015027 | 17 | 254 | 8.0 | 16.1 | 0.00 | 0.08 | 0.08 | 63 | 1013.5 |
| 20260506014527 | 18 | 281 | 6.4 | 14.5 | 0.00 | 0.08 | 0.08 | 62 | 1013.4 |
| 20260506014007 | 18 | 301 | 6.4 | 19.3 | 0.00 | 0.08 | 0.08 | 63 | 1013.4 |
| 20260506013506 | 18 | 293 | 8.0 | 19.3 | 0.00 | 0.08 | 0.08 | 63 | 1013.5 |
| 20260506013006 | 18 | 288 | 6.4 | 14.5 | 0.00 | 0.08 | 0.08 | 63 | 1013.5 |
| 20260506012507 | 18 | 294 | 6.4 | 14.5 | 0.00 | 0.08 | 0.08 | 63 | 1013.5 |
| 20260506012006 | 18 | 300 | 6.4 | 16.1 | 0.00 | 0.08 | 0.08 | 62 | 1013.5 |
| 20260506011507 | 18 | 294 | 4.8 | 16.1 | 0.00 | 0.08 | 0.08 | 62 | 1013.5 |
| 20260506011006 | 18 | 290 | 4.8 | 11.3 | 0.00 | 0.08 | 0.08 | 62 | 1013.6 |
| 20260506010506 | 18 | 273 | 6.4 | 14.5 | 0.00 | 0.08 | 0.08 | 62 | 1013.6 |
| 20260506010006 | 18 | 261 | 8.0 | 17.7 | 0.00 | 0.08 | 0.08 | 62 | 1013.6 |
| 20260506005506 | 18 | 263 | 6.4 | 17.7 | 0.00 | 0.08 | 0.08 | 62 | 1013.6 |
| 20260506005006 | 18 | 274 | 6.4 | 14.5 | 0.00 | 0.08 | 0.08 | 62 | 1013.6 |
| 20260506004527 | 18 | 292 | 8.0 | 17.7 | 0.00 | 0.08 | 0.08 | 62 | 1013.6 |
| 20260506004006 | 18 | 298 | 8.0 | 17.7 | 0.00 | 0.08 | 0.08 | 62 | 1013.5 |
| 20260506003506 | 18 | 288 | 8.0 | 17.7 | 0.00 | 0.08 | 0.08 | 62 | 1013.4 |
| 20260506003006 | 18 | 278 | 6.4 | 16.1 | 0.00 | 0.08 | 0.08 | 61 | 1013.4 |
| 20260506002506 | 18 | 268 | 8.0 | 22.5 | 0.00 | 0.08 | 0.08 | 62 | 1013.4 |
| 20260506002028 | 18 | 261 | 9.7 | 22.5 | 0.00 | 0.08 | 0.08 | 61 | 1013.4 |
| 20260506001506 | 18 | 265 | 4.8 | 14.5 | 0.00 | 0.08 | 0.08 | 61 | 1013.3 |
| 20260506001006 | 18 | 273 | 4.8 | 14.5 | 0.00 | 0.08 | 0.08 | 61 | 1013.3 |
| 20260506000507 | 18 | 260 | 8.0 | 17.7 | 0.00 | 0.08 | 0.08 | 61 | 1013.2 |
| 20260506000006 | 18 | 258 | 11.3 | 17.7 | 0.00 | 0.08 | 0.08 | 62 | 1013.2 |
| 20260505235527 | 18 | 262 | 8.0 | 17.7 | 0.00 | 0.08 | 0.08 | 62 | 1013.2 |
| 20260505235027 | 18 | 262 | 4.8 | 16.1 | 0.00 | 0.08 | 0.08 | 61 | 1013.2 |
| 20260505234506 | 18 | 260 | 8.0 | 16.1 | 0.00 | 0.08 | 0.08 | 62 | 1013.2 |
| 20260505234006 | 18 | 260 | 8.0 | 16.1 | 0.00 | 0.08 | 0.08 | 62 | 1013.2 |
| 20260505233506 | 17 | 257 | 4.8 | 14.5 | 0.00 | 0.08 | 0.08 | 63 | 1013.2 |
| 20260505233006 | 17 | 251 | 4.8 | 14.5 | 0.00 | 0.08 | 0.08 | 63 | 1013.3 |
| 20260505232527 | 17 | 267 | 4.8 | 12.9 | 0.00 | 0.08 | 0.08 | 63 | 1013.3 |
| 20260505232006 | 17 | 275 | 6.4 | 16.1 | 0.00 | 0.08 | 0.08 | 64 | 1013.3 |
| 20260505231506 | 17 | 264 | 6.4 | 16.1 | 0.00 | 0.08 | 0.08 | 64 | 1013.4 |
| 20260505231007 | 17 | 270 | 6.4 | 16.1 | 0.00 | 0.08 | 0.08 | 64 | 1013.4 |
| 20260505230506 | 17 | 276 | 6.4 | 16.1 | 0.00 | 0.08 | 0.08 | 64 | 1013.5 |
| 20260505230006 | 17 | 273 | 4.8 | 16.1 | 0.00 | 0.08 | 0.08 | 65 | 1013.5 |
| 20260505225506 | 17 | 274 | 4.8 | 11.3 | 0.00 | 0.08 | 0.08 | 65 | 1013.5 |
| 20260505225006 | 17 | 290 | 6.4 | 17.7 | 0.00 | 0.08 | 0.08 | 66 | 1013.5 |
| 20260505224506 | 17 | 283 | 6.4 | 17.7 | 0.00 | 0.08 | 0.08 | 66 | 1013.5 |
| 20260505224028 | 17 | 267 | 6.4 | 17.7 | 0.00 | 0.08 | 0.08 | 66 | 1013.5 |
| 20260505223506 | 17 | 274 | 8.0 | 17.7 | 0.00 | 0.08 | 0.08 | 66 | 1013.7 |
| 20260505223006 | 17 | 278 | 8.0 | 16.1 | 0.00 | 0.08 | 0.08 | 66 | 1013.7 |
| 20260505222506 | 17 | 274 | 8.0 | 19.3 | 0.00 | 0.08 | 0.08 | 66 | 1013.7 |
| 20260505222006 | 17 | 267 | 8.0 | 19.3 | 0.00 | 0.08 | 0.08 | 67 | 1013.7 |
| 20260505221506 | 17 | 258 | 8.0 | 16.1 | 0.00 | 0.08 | 0.08 | 67 | 1013.7 |
| 20260505221006 | 17 | 263 | 8.0 | 16.1 | 0.00 | 0.08 | 0.08 | 67 | 1013.8 |
| 20260505220506 | 17 | 268 | 8.0 | 16.1 | 0.00 | 0.08 | 0.08 | 67 | 1013.7 |
| 20260505220006 | 17 | 277 | 8.0 | 16.1 | 0.00 | 0.08 | 0.08 | 68 | 1013.8 |
| 20260505215506 | 17 | 284 | 8.0 | 16.1 | 0.00 | 0.08 | 0.08 | 68 | 1013.8 |
| 20260505215006 | 17 | 290 | 8.0 | 17.7 | 0.00 | 0.08 | 0.08 | 67 | 1013.8 |
| 20260505214506 | 17 | 279 | 8.0 | 17.7 | 0.00 | 0.08 | 0.08 | 67 | 1013.8 |
| 20260505214006 | 17 | 262 | 8.0 | 19.3 | 0.00 | 0.08 | 0.08 | 67 | 1013.9 |
| 20260505213506 | 17 | 272 | 9.7 | 19.3 | 0.00 | 0.08 | 0.08 | 68 | 1013.9 |
| 20260505213006 | 17 | 273 | 9.7 | 19.3 | 0.00 | 0.08 | 0.08 | 68 | 1013.9 |
| 20260505212505 | 17 | 269 | 9.7 | 19.3 | 0.00 | 0.08 | 0.08 | 68 | 1013.9 |
| 20260505212026 | 16 | 263 | 8.0 | 19.3 | 0.00 | 0.08 | 0.08 | 69 | 1013.8 |
| 20260505211506 | 16 | 281 | 8.0 | 20.9 | 0.00 | 0.08 | 0.08 | 68 | 1013.8 |
| 20260505211027 | 17 | 297 | 8.0 | 20.9 | 0.00 | 0.08 | 0.08 | 67 | 1013.8 |
| 20260505210527 | 17 | 288 | 8.0 | 19.3 | 0.00 | 0.08 | 0.08 | 68 | 1013.8 |
| 20260505210006 | 17 | 283 | 8.0 | 19.3 | 0.00 | 0.08 | 0.08 | 68 | 1013.8 |
| 20260505205506 | 16 | 290 | 6.4 | 17.7 | 0.00 | 0.08 | 0.08 | 69 | 1013.9 |
| 20260505205006 | 16 | 296 | 8.0 | 20.9 | 0.00 | 0.08 | 0.08 | 69 | 1014.0 |
| 20260505204505 | 16 | 289 | 8.0 | 20.9 | 0.00 | 0.08 | 0.08 | 69 | 1014.0 |
| 20260505204006 | 16 | 279 | 8.0 | 19.3 | 0.00 | 0.08 | 0.08 | 70 | 1014.0 |
| 20260505203506 | 16 | 272 | 8.0 | 19.3 | 0.00 | 0.08 | 0.08 | 69 | 1014.0 |
| 20260505203026 | 16 | 260 | 9.7 | 19.3 | 0.00 | 0.08 | 0.08 | 70 | 1014.0 |
| 20260505202506 | 16 | 256 | 12.9 | 22.5 | 0.00 | 0.08 | 0.08 | 71 | 1014.0 |
| 20260505202006 | 16 | 260 | 12.9 | 22.5 | 0.00 | 0.08 | 0.08 | 70 | 1014.1 |
| 20260505201527 | 16 | 265 | 11.3 | 20.9 | 0.00 | 0.08 | 0.08 | 71 | 1014.1 |
| 20260505201006 | 16 | 267 | 8.0 | 20.9 | 0.00 | 0.08 | 0.08 | 70 | 1014.2 |
| 20260505200505 | 16 | 265 | 8.0 | 17.7 | 0.00 | 0.08 | 0.08 | 70 | 1014.2 |
| 20260505200006 | 16 | 279 | 8.0 | 20.9 | 0.00 | 0.08 | 0.08 | 70 | 1014.2 |
| 20260505195526 | 16 | 282 | 8.0 | 20.9 | 0.00 | 0.08 | 0.08 | 70 | 1014.2 |
| 20260505195005 | 16 | 271 | 8.0 | 22.5 | 0.00 | 0.08 | 0.08 | 71 | 1014.3 |
| 20260505194505 | 16 | 270 | 8.0 | 22.5 | 0.00 | 0.08 | 0.08 | 71 | 1014.3 |
| 20260505194026 | 16 | 268 | 9.7 | 20.9 | 0.00 | 0.08 | 0.08 | 72 | 1014.3 |
| 20260505193527 | 16 | 268 | 11.3 | 20.9 | 0.00 | 0.08 | 0.08 | 72 | 1014.3 |
| 20260505193006 | 15 | 271 | 11.3 | 20.9 | 0.00 | 0.08 | 0.08 | 72 | 1014.3 |
| 20260505192527 | 16 | 272 | 9.7 | 17.7 | 0.00 | 0.08 | 0.08 | 71 | 1014.2 |
| 20260505192027 | 16 | 265 | 9.7 | 20.9 | 0.00 | 0.08 | 0.08 | 72 | 1014.2 |
| 20260505191527 | 16 | 261 | 11.3 | 20.9 | 0.00 | 0.08 | 0.08 | 71 | 1014.2 |
| 20260505191026 | 16 | 267 | 11.3 | 22.5 | 0.00 | 0.08 | 0.08 | 70 | 1014.3 |
| 20260505190506 | 16 | 284 | 11.3 | 22.5 | 0.00 | 0.08 | 0.08 | 70 | 1014.2 |
| 20260505190027 | 16 | 281 | 11.3 | 20.9 | 0.00 | 0.08 | 0.08 | 71 | 1014.1 |
| 20260505185505 | 16 | 271 | 9.7 | 20.9 | 0.00 | 0.08 | 0.08 | 70 | 1014.0 |
| 20260505185026 | 16 | 269 | 11.3 | 20.9 | 0.00 | 0.08 | 0.08 | 73 | 1013.9 |
| 20260505184505 | 15 | 265 | 12.9 | 20.9 | 0.00 | 0.08 | 0.08 | 73 | 1013.9 |
| 20260505184005 | 15 | 259 | 11.3 | 20.9 | 0.00 | 0.08 | 0.08 | 75 | 1013.9 |
| 20260505183506 | 15 | 262 | 11.3 | 22.5 | 0.00 | 0.08 | 0.08 | 74 | 1013.9 |
| 20260505183026 | 15 | 264 | 11.3 | 22.5 | 0.00 | 0.08 | 0.08 | 75 | 1014.0 |
| 20260505182505 | 15 | 257 | 11.3 | 20.9 | 0.00 | 0.08 | 0.08 | 76 | 1014.0 |
| 20260505182005 | 15 | 260 | 8.0 | 19.3 | 0.00 | 0.08 | 0.08 | 75 | 1014.0 |
| 20260505181526 | 15 | 276 | 6.4 | 16.1 | 0.00 | 0.08 | 0.08 | 76 | 1014.0 |
| 20260505181006 | 15 | 283 | 4.8 | 12.9 | 0.00 | 0.08 | 0.08 | 76 | 1014.0 |
| 20260505180505 | 15 | 288 | 4.8 | 14.5 | 0.00 | 0.08 | 0.08 | 77 | 1014.0 |
| 20260505180026 | 15 | 293 | 4.8 | 14.5 | 0.00 | 0.08 | 0.08 | 77 | 1014.0 |
| 20260505175505 | 14 | 285 | 4.8 | 16.1 | 0.00 | 0.08 | 0.08 | 78 | 1014.0 |
| 20260505175026 | 14 | 275 | 6.4 | 16.1 | 0.00 | 0.08 | 0.08 | 78 | 1014.0 |
| 20260505174505 | 14 | 272 | 6.4 | 16.1 | 0.00 | 0.08 | 0.08 | 78 | 1014.0 |
| 20260505174005 | 14 | 279 | 6.4 | 16.1 | 0.00 | 0.08 | 0.08 | 78 | 1013.9 |
| 20260505173506 | 14 | 284 | 6.4 | 16.1 | 0.00 | 0.08 | 0.08 | 77 | 1013.9 |
| 20260505173026 | 14 | 279 | 8.0 | 16.1 | 0.00 | 0.08 | 0.08 | 77 | 1013.9 |
| 20260505172505 | 14 | 281 | 6.4 | 16.1 | 0.00 | 0.08 | 0.08 | 77 | 1013.8 |
| 20260505172005 | 14 | 283 | 4.8 | 12.9 | 0.00 | 0.08 | 0.08 | 78 | 1013.8 |
| 20260505171505 | 14 | 281 | 6.4 | 16.1 | 0.00 | 0.08 | 0.08 | 77 | 1013.8 |
| 20260505171026 | 14 | 279 | 6.4 | 16.1 | 0.00 | 0.08 | 0.08 | 77 | 1013.8 |
| 20260505170505 | 14 | 268 | 6.4 | 17.7 | 0.00 | 0.08 | 0.08 | 77 | 1013.8 |
| 20260505170005 | 14 | 258 | 6.4 | 17.7 | 0.00 | 0.08 | 0.08 | 77 | 1013.7 |
| 20260505165505 | 14 | 260 | 8.0 | 16.1 | 0.00 | 0.08 | 0.08 | 77 | 1013.7 |
| 20260505165026 | 14 | 266 | 8.0 | 16.1 | 0.00 | 0.08 | 0.08 | 77 | 1013.7 |
| 20260505164505 | 14 | 269 | 6.4 | 16.1 | 0.00 | 0.08 | 0.08 | 76 | 1013.7 |
| 20260505164005 | 14 | 271 | 6.4 | 16.1 | 0.00 | 0.08 | 0.08 | 76 | 1013.7 |
| 20260505163505 | 14 | 269 | 6.4 | 14.5 | 0.00 | 0.08 | 0.08 | 76 | 1013.7 |
| 20260505163006 | 14 | 261 | 6.4 | 16.1 | 0.00 | 0.08 | 0.08 | 76 | 1013.7 |
| 20260505162505 | 14 | 260 | 6.4 | 16.1 | 0.00 | 0.08 | 0.08 | 76 | 1013.7 |
| 20260505162005 | 13 | 266 | 4.8 | 14.5 | 0.00 | 0.08 | 0.08 | 76 | 1013.7 |
| 20260505161505 | 13 | 269 | 4.8 | 14.5 | 0.00 | 0.08 | 0.08 | 76 | 1013.6 |
| 20260505161005 | 13 | 268 | 6.4 | 17.7 | 0.00 | 0.08 | 0.08 | 75 | 1013.6 |
| 20260505160505 | 13 | 269 | 3.2 | 17.7 | 0.00 | 0.08 | 0.08 | 75 | 1013.7 |
| 20260505153005 | 13 | 298 | 3.2 | 6.4 | 0.00 | 0.08 | 0.08 | 77 | 1013.6 |
| 20260505152505 | 13 | 297 | 1.6 | 6.4 | 0.00 | 0.08 | 0.08 | 77 | 1013.5 |
| 20260505152005 | 13 | 294 | 1.6 | 4.8 | 0.00 | 0.08 | 0.08 | 77 | 1013.4 |
| 20260505151526 | 13 | 293 | 1.6 | 6.4 | 0.00 | 0.08 | 0.08 | 78 | 1013.4 |
| 20260505151005 | 13 | 292 | 1.6 | 6.4 | 0.00 | 0.08 | 0.08 | 78 | 1013.4 |
| 20260505150505 | 13 | 284 | 1.6 | 4.8 | 0.00 | 0.08 | 0.08 | 79 | 1013.3 |
| 20260505140505 | 12 | 0 | 0.0 | 0.0 | 0.00 | 0.08 | 0.08 | 85 | 1012.8 |
| 20260505125005 | 12 | 272 | 0.0 | 4.8 | 0.00 | 0.08 | 0.08 | 85 | 1012.2 |